Airfield :
LOGIN :

Register | Disclaimer

   EN    FR    IT 

 










Legend :    VFR   Marginal VFR   IFR   Intensive IFR   Very Intensive IFR
Visi :
Ceiling :
>= 8 km
>= 3000ft
5 to 8 km
1000 to 3000 ft
1500m to 5 km
500 to 1000 ft
800 to 1500m
200 to 500 ft
< 800m
< 200 ft
Symbols :   Thunderstorms  Fog  Heavy snow  Heavy precipitations  Wind > 20 kt
SIGMETs :     Misc.  Thunderstorms  Icing  Turbulence  Mountain Waves  Volcanic Ashes







- Airport Elevation : 3 ft
- IATA code : DHR


EHKD - Den Helder De Kooy

CURRENT METAR :
  • 220025Z AUTO 19020KT 9999 FEW015CB BKN021 OVC025 12/08 Q1003 WHT

EXPIRED METARs :
  • 212355Z AUTO 19021KT 9999 FEW015CB SCT023 BKN026 OVC046 12/08 Q1003 WHT
  • 212341Z AUTO 19021KT 9999 SCT023 BKN027 BKN047 12/08 Q1003 WHT
  • 212325Z AUTO 19020KT 9999 FEW018 BKN024 OVC027 12/08 Q1003 WHT
  • 212255Z AUTO 19021KT 9999 FEW024 SCT029 BKN046 12/09 Q1004 BLU
  • 212234Z AUTO 20021KT 9999 SCT024 SCT028 13/09 Q1004 WHT
  • 212225Z AUTO 20021KT 9999 FEW023 13/09 Q1004 BLU
  • 212210Z AUTO 20021KT 9999 FEW025 SCT029 BKN033 13/09 Q1004 BLU
  • 212155Z AUTO 20023KT 9999 FEW027 13/09 Q1004 BLU

TAF TAF EHKD
Valid from the 21 at 17:00 until the 22 at 05:00 UTC


211656Z 2117/2205 20020KT 9999 SCT030
TEMPO 2117/2121 FEW015 SCT018CB SCT025
PROB30
TEMPO 2117/2121 4500 TSRA SCT015CB BKN020
BECMG 2122/2202 20015G25KT FEW010 SCT018 BKN030
PROB40
TEMPO 2200/2205 25020G30KT 4500 SHRA RA SCT010 SCT018CB OVC030
PROB30
TEMPO 2200/2205 3000 +SHRA TSRA FEW005 SCT008 BKN015CB
No reported NOTAMs for that airfield.



MET'MAP, your aeronautical weather chart ! - Copyright ORBIFLY December 2007 - Disclaimer

ORBIFLY MET'MAP TEAM :

Programming & Development : Alexandra Zaïnal
Concept & Development : Baudouin d'Aumeries
Co-Development & Prog : Marc-Olivier Méhu
Technical & hardware support : Manuel Goepfert

Contact : metmap@orbifly.com




SOURCES & CREDITS :

   NOAA